USCGC Polar Star — NBTM — position and weather

sailwx.info

Track history (hours):
 
Tides and Currents Weather Stations Pressure Air Temp Water Temp Dewpoint Dewpoint Depression Visibility Wind Speed Wind Dir Waves Ship Positions

Oceanographic research ship USCGC Polar Star (USA)

Detailed information on ship capabilities available from University of Delaware's Ocean Information Center and ARCUS's ALIAS (Arctic Logistics Information and Support) project.

Last reported at 2020-Aug-12 03:01 UTC. Time now 2020-Aug-13 12:07 UTC.
Position N 38°14' W 123°24'.

Type: SAR. MMSI: 367255000.

Date/timePositionNaut miles runAvg speedWind from/ knotsBaromVisibWave heightAir tempDewpointWater temp
2020-Aug-12 03:01N 38°14' W 123°24'714.3
2020-Aug-12 02:30N 38°08' W 123°19'3611.8
2020-Aug-11 23:30N 37°47' W 122°43'4 8.7
2020-Aug-11 23:00N 37°46' W 122°37'11 7.6
2020-Aug-11 21:30N 37°49' W 122°23'1 1.4
2020-Aug-11 21:00N 37°49' W 122°23'3 2.6
2020-Aug-11 20:00N 37°46' W 122°21'3 1.1
2020-Aug-11 17:30N 37°43' W 122°21'1 0.2
2020-Aug-11 13:00N 37°44' W 122°20'0 0.0
2020-Aug-11 11:30N 37°44' W 122°20'0 0.0
2020-Aug-11 10:00N 37°44' W 122°20'0 0.0
2020-Aug-11 09:30N 37°44' W 122°20'0 0.0
2020-Aug-11 06:57N 37°44' W 122°20'0 0.0
2020-Aug-11 05:57N 37°44' W 122°20'0 0.0
2020-Aug-11 05:00N 37°44' W 122°20'0 0.0
2020-Aug-11 00:58N 37°44' W 122°20'0 0.0
2020-Aug-10 23:57N 37°44' W 122°20'0 0.0
2020-Aug-10 21:28N 37°44' W 122°20'0 0.0
2020-Aug-10 18:00N 37°44' W 122°20'0 0.0
2020-Aug-10 12:27N 37°44' W 122°20'0 0.0
2020-Aug-10 09:00N 37°44' W 122°20'0 0.0
2020-Aug-10 08:30N 37°44' W 122°20'0 0.0
2020-Aug-10 00:30N 37°44' W 122°20'0 0.0
2020-Aug-09 23:28N 37°44' W 122°20'0 0.0
2020-Aug-09 19:57N 37°44' W 122°20'0 0.0
2020-Aug-09 18:30N 37°44' W 122°20'0 0.0
2020-Aug-09 16:30N 37°44' W 122°20'0 0.0
2020-Aug-09 15:00N 37°44' W 122°20'0 0.0
2020-Aug-09 12:30N 37°44' W 122°20'0 0.0
2020-Aug-09 10:58N 37°44' W 122°20'0 0.0
2020-Aug-09 09:28N 37°44' W 122°20'0 0.0
2020-Aug-09 07:30N 37°44' W 122°20'0 0.0
2020-Aug-09 07:00N 37°44' W 122°20'0 0.0
2020-Aug-09 05:30N 37°44' W 122°20'0 0.0
2020-Aug-09 04:30N 37°44' W 122°20'0 0.0
2020-Aug-08 23:29N 37°44' W 122°20'0 0.0
2020-Aug-08 22:30N 37°44' W 122°20'0 0.0
2020-Aug-08 21:30N 37°44' W 122°20'0 0.0
2020-Aug-08 17:29N 37°44' W 122°20'0 0.0
2020-Aug-08 14:30N 37°44' W 122°20'0 0.0
2020-Aug-08 12:59N 37°44' W 122°20'0 0.0
2020-Aug-08 11:27N 37°44' W 122°20'0 0.1
2020-Aug-08 11:00N 37°44' W 122°20'0 0.0
2020-Aug-08 09:30N 37°44' W 122°20'0 0.0
2020-Aug-08 09:00N 37°44' W 122°20'0 0.0
2020-Aug-08 08:00N 37°44' W 122°20'0 0.0
2020-Aug-08 04:59N 37°44' W 122°20'0 0.1
2020-Aug-08 03:59N 37°44' W 122°20'0 0.0
2020-Aug-08 03:29N 37°44' W 122°20'0 0.0
2020-Aug-08 03:00N 37°44' W 122°20'0 0.0
2020-Aug-08 01:00N 37°44' W 122°20'0 0.0
2020-Aug-08 00:00N 37°44' W 122°20'0 0.0
2020-Aug-07 21:59N 37°44' W 122°20'0 0.0
2020-Aug-07 19:30N 37°44' W 122°20'0 0.0
2020-Aug-07 17:06N 37°44' W 122°20'0 0.0
2020-Aug-07 16:29N 37°44' W 122°20'0 0.0
2020-Aug-07 14:00N 37°44' W 122°20'0 0.0
2020-Aug-07 13:00N 37°44' W 122°20'0 0.0
2020-Aug-07 12:30N 37°44' W 122°20'0 0.0
2020-Aug-07 10:30N 37°44' W 122°20'0 0.0
2020-Aug-07 09:59N 37°44' W 122°20'0 0.0
2020-Aug-07 06:30N 37°44' W 122°20'0 0.0
2020-Aug-07 05:00N 37°44' W 122°20'0 0.0
2020-Aug-07 04:30N 37°44' W 122°20'0 0.0
2020-Aug-07 04:00N 37°44' W 122°20'0 0.0
2020-Aug-07 03:30N 37°44' W 122°20'0 0.0
2020-Aug-07 00:59N 37°44' W 122°20'0 0.0
2020-Aug-06 23:30N 37°44' W 122°20'0 0.0
2020-Aug-06 21:30N 37°44' W 122°20'0 0.0
2020-Aug-06 20:00N 37°44' W 122°20'3 1.4
2020-Aug-06 18:00N 37°42' W 122°18'3 1.4 030 / 41014.3 23.318.420.6
2020-Aug-06 15:57N 37°44' W 122°20'0 0.0
2020-Aug-06 13:30N 37°44' W 122°20'0 0.0
2020-Aug-06 06:00N 37°44' W 122°20'3438.9
2020-Aug-06 06:00N 37°42' W 122°18'3 5.9 280 / 91013.9 15.613.714.4
2020-Aug-06 05:30N 37°44' W 122°20'0 0.0
2020-Aug-06 04:30N 37°44' W 122°20'2 3.2
2020-Aug-06 04:00N 37°45' W 122°22'15 7.7
2020-Aug-06 02:00N 38°01' W 122°24'6 7.7
2020-Aug-06 01:13N 38°03' W 122°17'3 0.1
2020-Aug-04 20:58N 38°06' W 122°16'0 0.0
2020-Aug-04 04:38N 38°06' W 122°16'0 0.0
2020-Aug-03 17:23N 38°06' W 122°16'0 0.0
2020-Aug-03 16:29N 38°06' W 122°16'0 0.0
2020-Aug-03 15:29N 38°06' W 122°16'0 0.0
2020-Aug-03 09:53N 38°06' W 122°16'0 0.0
2020-Aug-03 09:17N 38°06' W 122°16'0 0.0
2020-Aug-03 08:47N 38°06' W 122°16'0 0.0
2020-Aug-03 06:46N 38°06' W 122°16'0 0.0
2020-Aug-03 04:04N 38°06' W 122°16'0 0.0
2020-Aug-03 03:23N 38°06' W 122°16'0 0.0
2020-Aug-02 16:23N 38°06' W 122°16'0 0.0
2020-Aug-02 13:01N 38°06' W 122°16'0 0.0
2020-Aug-02 12:59N 38°06' W 122°16'0 0.0
2020-Aug-02 12:17N 38°06' W 122°16'0 0.0
2020-Aug-02 10:22N 38°06' W 122°16'0 0.0
2020-Aug-02 09:32N 38°06' W 122°16'0 0.0
2020-Aug-02 06:29N 38°06' W 122°16'0 0.0
2020-Aug-02 04:47N 38°06' W 122°16'0 0.0
2020-Aug-02 04:14N 38°06' W 122°16'0 0.0
2020-Aug-02 03:59N 38°06' W 122°16'  
Track history (hours):
 
Tides and Currents Weather Stations Pressure Air Temp Water Temp Dewpoint Dewpoint Depression Visibility Wind Speed Wind Dir Waves Ship Positions

Oceanographic research ship USCGC Polar Star (USA)

Detailed information on ship capabilities available from University of Delaware's Ocean Information Center and ARCUS's ALIAS (Arctic Logistics Information and Support) project.

Last reported at 2020-Aug-12 03:01 UTC. Time now 2020-Aug-13 12:07 UTC.
Position N 38°14' W 123°24'.

Type: SAR. MMSI: 367255000.

Date/timePositionNaut miles runAvg speedWind from/ knotsBaromVisibWave heightAir tempDewpointWater temp
2020-Aug-12 03:01N 38°14' W 123°24'714.3
2020-Aug-12 02:30N 38°08' W 123°19'3611.8
2020-Aug-11 23:30N 37°47' W 122°43'4 8.7
2020-Aug-11 23:00N 37°46' W 122°37'11 7.6
2020-Aug-11 21:30N 37°49' W 122°23'1 1.4
2020-Aug-11 21:00N 37°49' W 122°23'3 2.6
2020-Aug-11 20:00N 37°46' W 122°21'3 1.1
2020-Aug-11 17:30N 37°43' W 122°21'1 0.2
2020-Aug-11 13:00N 37°44' W 122°20'0 0.0
2020-Aug-11 11:30N 37°44' W 122°20'0 0.0
2020-Aug-11 10:00N 37°44' W 122°20'0 0.0
2020-Aug-11 09:30N 37°44' W 122°20'0 0.0
2020-Aug-11 06:57N 37°44' W 122°20'0 0.0
2020-Aug-11 05:57N 37°44' W 122°20'0 0.0
2020-Aug-11 05:00N 37°44' W 122°20'0 0.0
2020-Aug-11 00:58N 37°44' W 122°20'0 0.0
2020-Aug-10 23:57N 37°44' W 122°20'0 0.0
2020-Aug-10 21:28N 37°44' W 122°20'0 0.0
2020-Aug-10 18:00N 37°44' W 122°20'0 0.0
2020-Aug-10 12:27N 37°44' W 122°20'0 0.0
2020-Aug-10 09:00N 37°44' W 122°20'0 0.0
2020-Aug-10 08:30N 37°44' W 122°20'0 0.0
2020-Aug-10 00:30N 37°44' W 122°20'0 0.0
2020-Aug-09 23:28N 37°44' W 122°20'0 0.0
2020-Aug-09 19:57N 37°44' W 122°20'0 0.0
2020-Aug-09 18:30N 37°44' W 122°20'0 0.0
2020-Aug-09 16:30N 37°44' W 122°20'0 0.0
2020-Aug-09 15:00N 37°44' W 122°20'0 0.0
2020-Aug-09 12:30N 37°44' W 122°20'0 0.0
2020-Aug-09 10:58N 37°44' W 122°20'0 0.0
2020-Aug-09 09:28N 37°44' W 122°20'0 0.0
2020-Aug-09 07:30N 37°44' W 122°20'0 0.0
2020-Aug-09 07:00N 37°44' W 122°20'0 0.0
2020-Aug-09 05:30N 37°44' W 122°20'0 0.0
2020-Aug-09 04:30N 37°44' W 122°20'0 0.0
2020-Aug-08 23:29N 37°44' W 122°20'0 0.0
2020-Aug-08 22:30N 37°44' W 122°20'0 0.0
2020-Aug-08 21:30N 37°44' W 122°20'0 0.0
2020-Aug-08 17:29N 37°44' W 122°20'0 0.0
2020-Aug-08 14:30N 37°44' W 122°20'0 0.0
2020-Aug-08 12:59N 37°44' W 122°20'0 0.0
2020-Aug-08 11:27N 37°44' W 122°20'0 0.1
2020-Aug-08 11:00N 37°44' W 122°20'0 0.0
2020-Aug-08 09:30N 37°44' W 122°20'0 0.0
2020-Aug-08 09:00N 37°44' W 122°20'0 0.0
2020-Aug-08 08:00N 37°44' W 122°20'0 0.0
2020-Aug-08 04:59N 37°44' W 122°20'0 0.1
2020-Aug-08 03:59N 37°44' W 122°20'0 0.0
2020-Aug-08 03:29N 37°44' W 122°20'0 0.0
2020-Aug-08 03:00N 37°44' W 122°20'0 0.0
2020-Aug-08 01:00N 37°44' W 122°20'0 0.0
2020-Aug-08 00:00N 37°44' W 122°20'0 0.0
2020-Aug-07 21:59N 37°44' W 122°20'0 0.0
2020-Aug-07 19:30N 37°44' W 122°20'0 0.0
2020-Aug-07 17:06N 37°44' W 122°20'0 0.0
2020-Aug-07 16:29N 37°44' W 122°20'0 0.0
2020-Aug-07 14:00N 37°44' W 122°20'0 0.0
2020-Aug-07 13:00N 37°44' W 122°20'0 0.0
2020-Aug-07 12:30N 37°44' W 122°20'0 0.0
2020-Aug-07 10:30N 37°44' W 122°20'0 0.0
2020-Aug-07 09:59N 37°44' W 122°20'0 0.0
2020-Aug-07 06:30N 37°44' W 122°20'0 0.0
2020-Aug-07 05:00N 37°44' W 122°20'0 0.0
2020-Aug-07 04:30N 37°44' W 122°20'0 0.0
2020-Aug-07 04:00N 37°44' W 122°20'0 0.0
2020-Aug-07 03:30N 37°44' W 122°20'0 0.0
2020-Aug-07 00:59N 37°44' W 122°20'0 0.0
2020-Aug-06 23:30N 37°44' W 122°20'0 0.0
2020-Aug-06 21:30N 37°44' W 122°20'0 0.0
2020-Aug-06 20:00N 37°44' W 122°20'3 1.4
2020-Aug-06 18:00N 37°42' W 122°18'3 1.4 030 / 41014.3 23.318.420.6
2020-Aug-06 15:57N 37°44' W 122°20'0 0.0
2020-Aug-06 13:30N 37°44' W 122°20'0 0.0
2020-Aug-06 06:00N 37°44' W 122°20'3438.9
2020-Aug-06 06:00N 37°42' W 122°18'3 5.9 280 / 91013.9 15.613.714.4
2020-Aug-06 05:30N 37°44' W 122°20'0 0.0
2020-Aug-06 04:30N 37°44' W 122°20'2 3.2
2020-Aug-06 04:00N 37°45' W 122°22'15 7.7
2020-Aug-06 02:00N 38°01' W 122°24'6 7.7
2020-Aug-06 01:13N 38°03' W 122°17'3 0.1
2020-Aug-04 20:58N 38°06' W 122°16'0 0.0
2020-Aug-04 04:38N 38°06' W 122°16'0 0.0
2020-Aug-03 17:23N 38°06' W 122°16'0 0.0
2020-Aug-03 16:29N 38°06' W 122°16'0 0.0
2020-Aug-03 15:29N 38°06' W 122°16'0 0.0
2020-Aug-03 09:53N 38°06' W 122°16'0 0.0
2020-Aug-03 09:17N 38°06' W 122°16'0 0.0
2020-Aug-03 08:47N 38°06' W 122°16'0 0.0
2020-Aug-03 06:46N 38°06' W 122°16'0 0.0
2020-Aug-03 04:04N 38°06' W 122°16'0 0.0
2020-Aug-03 03:23N 38°06' W 122°16'0 0.0
2020-Aug-02 16:23N 38°06' W 122°16'0 0.0
2020-Aug-02 13:01N 38°06' W 122°16'0 0.0
2020-Aug-02 12:59N 38°06' W 122°16'0 0.0
2020-Aug-02 12:17N 38°06' W 122°16'0 0.0
2020-Aug-02 10:22N 38°06' W 122°16'0 0.0
2020-Aug-02 09:32N 38°06' W 122°16'0 0.0
2020-Aug-02 06:29N 38°06' W 122°16'0 0.0
2020-Aug-02 04:47N 38°06' W 122°16'0 0.0
2020-Aug-02 04:14N 38°06' W 122°16'0 0.0
2020-Aug-02 03:59N 38°06' W 122°16'  

Dump ship's entire track history